createdAt,value
2022-11-13T00:01:18.941Z,98605.94
2022-11-13T00:04:04.319Z,98601.88
2022-11-13T00:06:50.197Z,98591.53
2022-11-13T00:09:37.856Z,98598.53
2022-11-13T00:12:22.992Z,98594.22
2022-11-13T00:15:08.098Z,98598.63
2022-11-13T00:17:53.375Z,98591.75
2022-11-13T00:20:38.365Z,98597.69
2022-11-13T00:23:23.275Z,98590.72
2022-11-13T00:26:10.694Z,98591.66
2022-11-13T00:29:00.131Z,98595.34
2022-11-13T00:31:45.119Z,98586.56
2022-11-13T00:37:35.436Z,98585.31
2022-11-13T00:40:20.255Z,98578.22
2022-11-13T00:43:05.193Z,98576.91
2022-11-13T00:45:50.104Z,98570.63
2022-11-13T00:48:35.809Z,98572.38
2022-11-13T00:51:20.828Z,98571.56
2022-11-13T00:54:05.707Z,98574.88
2022-11-13T00:56:50.601Z,98574.69
2022-11-13T00:59:35.536Z,98577.50
2022-11-13T01:02:20.532Z,98575.72
2022-11-13T01:05:05.782Z,98573.75
2022-11-13T01:07:50.581Z,98570.53
2022-11-13T01:10:40.494Z,98564.06
2022-11-13T01:13:25.638Z,98561.25
2022-11-13T01:16:11.913Z,98562.81
2022-11-13T01:18:57.222Z,98558.22
2022-11-13T01:21:42.371Z,98557.47
2022-11-13T01:24:27.106Z,98556.03
2022-11-13T01:27:13.212Z,98560.72
2022-11-13T01:29:58.402Z,98552.66
2022-11-13T01:32:43.434Z,98554.66
2022-11-13T01:35:28.603Z,98555.16
2022-11-13T01:38:13.288Z,98551.09
2022-11-13T01:40:58.666Z,98548.59
2022-11-13T01:43:43.962Z,98545.88
2022-11-13T01:46:29.067Z,98542.13
2022-11-13T01:49:28.359Z,98542.22
2022-11-13T01:52:15.397Z,98532.66
2022-11-13T01:55:02.835Z,98536.69
2022-11-13T01:57:48.186Z,98536.22
2022-11-13T02:00:33.357Z,98533.94
2022-11-13T02:03:18.315Z,98529.22
2022-11-13T02:06:03.402Z,98525.34
2022-11-13T02:08:50.532Z,98510.16
2022-11-13T02:11:37.086Z,98508.28
2022-11-13T02:14:23.834Z,98504.84
2022-11-13T02:17:11.370Z,98500.69
2022-11-13T02:19:58.660Z,98499.53
2022-11-13T02:22:55.975Z,98497.03
2022-11-13T02:25:42.062Z,98490.81
2022-11-13T02:28:27.423Z,98483.03
2022-11-13T02:31:13.455Z,98480.38
2022-11-13T02:33:58.375Z,98480.81
2022-11-13T02:36:43.176Z,98478.00
2022-11-13T02:39:28.098Z,98472.25
2022-11-13T02:42:13.135Z,98477.34
2022-11-13T02:44:58.162Z,98467.94
2022-11-13T02:47:43.271Z,98461.00
2022-11-13T02:50:28.623Z,98464.00
2022-11-13T02:53:13.868Z,98463.16
2022-11-13T02:55:58.955Z,98455.75
2022-11-13T02:58:43.892Z,98457.22
2022-11-13T03:01:28.989Z,98450.00
2022-11-13T03:04:14.123Z,98451.31
2022-11-13T03:06:59.051Z,98450.56
2022-11-13T03:09:43.823Z,98443.22
2022-11-13T03:12:28.849Z,98439.28
2022-11-13T03:15:14.567Z,98431.94
2022-11-13T03:18:02.140Z,98441.94
2022-11-13T03:20:47.083Z,98432.06
2022-11-13T03:23:32.239Z,98424.69
2022-11-13T03:26:17.588Z,98428.94
2022-11-13T03:29:03.115Z,98427.44
2022-11-13T03:31:48.551Z,98422.09
2022-11-13T03:34:34.104Z,98417.34
2022-11-13T03:37:19.215Z,98417.38
2022-11-13T03:40:04.247Z,98410.31
2022-11-13T03:42:49.363Z,98410.22
2022-11-13T03:45:34.566Z,98405.22
2022-11-13T03:48:19.620Z,98407.72
2022-11-13T03:51:04.587Z,98410.00
2022-11-13T03:53:49.442Z,98405.13
2022-11-13T03:56:34.424Z,98397.88
2022-11-13T03:59:19.328Z,98397.88
2022-11-13T04:02:04.473Z,98397.19
2022-11-13T04:04:49.642Z,98394.09
2022-11-13T04:07:34.588Z,98384.34
2022-11-13T04:10:19.800Z,98392.34
2022-11-13T04:13:04.924Z,98388.44
2022-11-13T04:15:49.998Z,98396.13
2022-11-13T04:18:34.900Z,98386.41
2022-11-13T04:21:19.881Z,98386.78
2022-11-13T04:24:04.784Z,98380.84
2022-11-13T04:26:50.039Z,98374.66
2022-11-13T04:29:34.978Z,98382.34
2022-11-13T04:32:20.089Z,98376.50
2022-11-13T04:35:05.291Z,98380.97
2022-11-13T04:37:50.486Z,98373.38
2022-11-13T04:40:35.429Z,98378.38
2022-11-13T04:43:20.265Z,98373.28
2022-11-13T04:46:05.289Z,98367.44
2022-11-13T04:48:50.315Z,98361.13
2022-11-13T04:51:35.338Z,98362.44
2022-11-13T04:54:24.307Z,98364.47
2022-11-13T04:57:12.306Z,98360.03
2022-11-13T04:59:57.584Z,98357.78
2022-11-13T05:02:42.641Z,98357.25
2022-11-13T05:05:27.593Z,98348.31
2022-11-13T05:08:12.769Z,98353.16
2022-11-13T05:10:58.134Z,98345.19
2022-11-13T05:13:43.563Z,98340.75
2022-11-13T05:16:28.792Z,98336.94
2022-11-13T05:19:13.993Z,98330.38
2022-11-13T05:21:59.250Z,98335.34
2022-11-13T05:24:44.441Z,98330.81
2022-11-13T05:27:29.440Z,98334.25
2022-11-13T05:30:14.487Z,98341.03
2022-11-13T05:32:59.361Z,98333.97
2022-11-13T05:35:44.079Z,98326.38
2022-11-13T05:38:29.768Z,98313.88
2022-11-13T05:41:16.748Z,98314.91
2022-11-13T05:44:01.784Z,98313.59
2022-11-13T05:46:46.729Z,98317.13
2022-11-13T05:49:31.736Z,98326.47
2022-11-13T05:52:16.650Z,98319.44
2022-11-13T05:55:01.675Z,98322.88
2022-11-13T05:57:46.500Z,98322.97
2022-11-13T06:00:31.455Z,98312.41
2022-11-13T06:03:16.209Z,98309.81
2022-11-13T06:06:01.399Z,98306.09
2022-11-13T06:08:46.907Z,98315.38
2022-11-13T06:11:31.969Z,98308.22
2022-11-13T06:14:17.300Z,98311.13
2022-11-13T06:17:02.317Z,98308.97
2022-11-13T06:19:48.254Z,98312.78
2022-11-13T06:22:33.166Z,98329.81
2022-11-13T06:25:18.268Z,98324.34
2022-11-13T06:28:03.178Z,98312.13
2022-11-13T06:30:48.359Z,98320.72
2022-11-13T06:33:34.069Z,98315.09
2022-11-13T06:36:20.553Z,98298.41
2022-11-13T06:39:06.484Z,98296.03
2022-11-13T06:41:51.703Z,98311.38
2022-11-13T06:44:36.588Z,98298.22
2022-11-13T06:47:21.370Z,98302.56
2022-11-13T06:50:06.747Z,98297.38
2022-11-13T06:52:51.922Z,98301.84
2022-11-13T06:55:43.833Z,98285.06
2022-11-13T06:58:29.346Z,98298.03
2022-11-13T07:01:16.042Z,98292.78
2022-11-13T07:04:00.999Z,98291.50
2022-11-13T07:06:47.222Z,98288.59
2022-11-13T07:09:32.140Z,98294.25
2022-11-13T07:12:17.045Z,98293.78
2022-11-13T07:15:02.730Z,98222.41
2022-11-13T07:17:47.594Z,98289.81
2022-11-13T07:20:33.208Z,98286.63
2022-11-13T07:23:18.040Z,98277.63
2022-11-13T07:26:06.158Z,98280.03
2022-11-13T07:28:51.257Z,98274.47
2022-11-13T07:31:36.286Z,98267.03
2022-11-13T07:34:21.570Z,98261.72
2022-11-13T07:37:09.433Z,98263.00
2022-11-13T07:39:54.247Z,98271.53
2022-11-13T07:42:39.795Z,98268.47
2022-11-13T07:45:25.013Z,98255.09
2022-11-13T07:48:10.196Z,98253.66
2022-11-13T07:50:55.537Z,98257.75
2022-11-13T07:53:40.239Z,98254.41
2022-11-13T07:56:25.793Z,98258.44
2022-11-13T07:59:10.773Z,98249.56
2022-11-13T08:01:55.740Z,98247.84
2022-11-13T08:04:41.021Z,98229.97
2022-11-13T08:07:25.984Z,98224.66
2022-11-13T08:10:10.869Z,98209.78
2022-11-13T08:13:03.183Z,98208.94
2022-11-13T08:15:48.187Z,98192.66
2022-11-13T08:18:33.151Z,98192.75
2022-11-13T08:21:18.579Z,98188.53
2022-11-13T08:24:04.002Z,98185.09
2022-11-13T08:26:48.964Z,98171.91
2022-11-13T08:29:33.880Z,98177.44
2022-11-13T08:32:19.356Z,98178.78
2022-11-13T08:35:04.643Z,98174.75
2022-11-13T08:37:49.873Z,98162.91
2022-11-13T08:40:35.504Z,98155.97
2022-11-13T08:43:20.764Z,98156.81
2022-11-13T08:46:05.822Z,98147.44
2022-11-13T08:48:50.727Z,98155.97
2022-11-13T08:51:35.601Z,98165.91
2022-11-13T08:54:20.838Z,98160.66
2022-11-13T08:57:06.212Z,98160.53
2022-11-13T08:59:51.082Z,98152.47
2022-11-13T09:02:35.896Z,98153.16
2022-11-13T09:05:20.835Z,98143.28
2022-11-13T09:08:06.440Z,98140.63
2022-11-13T09:10:51.557Z,98158.56
2022-11-13T09:13:41.204Z,98152.19
2022-11-13T09:16:28.897Z,98149.28
2022-11-13T09:19:13.853Z,98150.72
2022-11-13T09:21:58.708Z,98156.34
2022-11-13T09:24:43.591Z,98156.81
2022-11-13T09:27:28.367Z,98147.78
2022-11-13T09:30:13.419Z,98148.75
2022-11-13T09:32:59.492Z,98154.78
2022-11-13T09:35:44.318Z,98148.47
2022-11-13T09:38:32.513Z,98170.03
2022-11-13T09:41:22.808Z,98155.75
2022-11-13T09:44:16.008Z,98155.47
2022-11-13T09:47:09.101Z,98146.44
2022-11-13T09:49:58.046Z,98144.50
2022-11-13T09:52:44.092Z,98149.53
2022-11-13T09:55:32.464Z,98151.84
2022-11-13T09:58:36.357Z,98141.19
2022-11-13T10:01:41.599Z,98155.59
2022-11-13T10:04:33.626Z,98151.13
2022-11-13T10:07:37.780Z,98141.53
2022-11-13T10:10:28.841Z,98143.09
2022-11-13T10:13:15.881Z,98144.09
2022-11-13T10:16:15.397Z,98135.47
2022-11-13T10:19:11.612Z,98132.56
2022-11-13T10:22:31.436Z,98126.13
2022-11-13T10:25:22.582Z,98105.19
2022-11-13T10:28:49.611Z,98117.50
2022-11-13T10:31:49.171Z,98118.06
2022-11-13T10:34:34.074Z,98106.63
2022-11-13T10:37:21.984Z,98096.44
2022-11-13T10:40:07.080Z,98105.25
2022-11-13T10:42:52.362Z,98095.09
2022-11-13T10:45:37.578Z,98101.41
2022-11-13T10:48:24.464Z,98092.84
2022-11-13T10:51:21.503Z,98091.06
2022-11-13T10:54:21.625Z,98096.56
2022-11-13T10:57:24.194Z,98097.41
2022-11-13T11:00:21.788Z,98080.16
2022-11-13T11:03:20.553Z,98083.72
2022-11-13T11:06:05.532Z,98076.78
2022-11-13T11:08:50.733Z,98069.06
2022-11-13T11:11:54.360Z,98063.22
2022-11-13T11:14:42.521Z,98050.09
2022-11-13T11:18:03.242Z,98051.28
2022-11-13T11:20:50.821Z,98049.59
2022-11-13T11:23:49.601Z,98030.66
2022-11-13T11:26:43.682Z,98018.75
2022-11-13T11:29:31.917Z,98012.06
2022-11-13T11:32:31.199Z,98000.69
2022-11-13T11:35:26.307Z,97993.03
2022-11-13T11:38:33.236Z,97990.63
2022-11-13T11:41:20.304Z,97985.63
2022-11-13T11:44:24.018Z,97974.50
2022-11-13T11:47:16.368Z,97965.50
2022-11-13T11:50:02.869Z,97948.13
2022-11-13T11:53:03.202Z,97953.66
2022-11-13T11:55:57.483Z,97952.88
2022-11-13T11:58:48.627Z,97942.72
2022-11-13T12:01:33.571Z,97947.38
2022-11-13T12:04:38.607Z,97940.81
2022-11-13T12:07:33.026Z,97946.44
2022-11-13T12:10:27.185Z,97935.31
2022-11-13T12:13:12.103Z,97936.50
2022-11-13T12:16:00.150Z,97928.16
2022-11-13T12:18:51.198Z,97922.41
2022-11-13T12:21:56.222Z,97924.59
2022-11-13T12:24:59.900Z,97910.88
2022-11-13T12:27:53.940Z,97915.88
2022-11-13T12:31:05.233Z,97910.00
2022-11-13T12:34:02.644Z,97901.94
2022-11-13T12:36:47.650Z,97908.53
2022-11-13T12:39:42.945Z,97900.47
2022-11-13T12:42:42.664Z,97904.59
2022-11-13T12:45:37.001Z,97905.09
2022-11-13T12:48:22.442Z,97908.41
2022-11-13T12:51:09.425Z,97912.69
2022-11-13T12:53:55.263Z,97907.41
2022-11-13T12:56:40.352Z,97887.03
2022-11-13T12:59:32.237Z,97887.69
2022-11-13T13:02:17.469Z,97896.09
2022-11-13T13:05:28.655Z,97882.63
2022-11-13T13:08:16.325Z,97888.38
2022-11-13T13:11:04.277Z,97886.72
2022-11-13T13:13:49.101Z,97899.75
2022-11-13T13:16:33.991Z,97883.94
2022-11-13T13:19:32.541Z,97889.84
2022-11-13T13:22:25.753Z,97887.88
2022-11-13T13:25:29.600Z,97879.19
2022-11-13T13:28:16.302Z,97884.28
2022-11-13T13:31:01.486Z,97880.16
2022-11-13T13:33:46.602Z,97882.97
2022-11-13T13:36:40.447Z,97874.22
2022-11-13T13:39:44.323Z,97876.19
2022-11-13T13:42:42.016Z,97877.69
2022-11-13T13:45:47.455Z,97871.59
2022-11-13T13:48:32.967Z,97860.72
2022-11-13T13:51:18.422Z,97861.19
2022-11-13T13:54:06.513Z,97861.34
2022-11-13T13:56:52.681Z,97859.69
2022-11-13T13:59:37.616Z,97866.25
2022-11-13T14:02:23.717Z,97860.66
2022-11-13T14:05:17.771Z,97854.53
2022-11-13T14:08:07.545Z,97858.66
2022-11-13T14:10:53.101Z,97851.03
2022-11-13T14:13:38.137Z,97849.72
2022-11-13T14:16:23.405Z,97847.72
2022-11-13T14:19:10.989Z,97845.69
2022-11-13T14:22:00.790Z,97843.84
2022-11-13T14:24:45.600Z,97837.91
2022-11-13T14:27:31.664Z,97844.66
2022-11-13T14:30:24.673Z,97842.28
2022-11-13T14:33:16.350Z,97843.72
2022-11-13T14:36:02.012Z,97831.53
2022-11-13T14:38:52.312Z,97824.56
2022-11-13T14:41:50.256Z,97825.31
2022-11-13T14:44:35.605Z,97841.66
2022-11-13T14:47:28.626Z,97842.28
2022-11-13T14:50:13.804Z,97843.19
2022-11-13T14:53:04.957Z,97852.78
2022-11-13T14:55:56.540Z,97852.88
2022-11-13T14:58:44.563Z,97858.34
2022-11-13T15:01:32.388Z,97853.66
2022-11-13T15:04:17.672Z,97852.50
2022-11-13T15:07:03.761Z,97857.66
2022-11-13T15:09:49.410Z,97864.22
2022-11-13T15:12:34.824Z,97877.03
2022-11-13T15:15:21.083Z,97863.75
2022-11-13T15:18:09.302Z,97869.22
2022-11-13T15:20:54.357Z,97877.69
2022-11-13T15:23:39.338Z,97858.56
2022-11-13T15:26:24.272Z,97853.25
2022-11-13T15:29:09.236Z,97862.25
2022-11-13T15:31:54.581Z,97860.34
2022-11-13T15:34:40.026Z,97862.84
2022-11-13T15:37:25.069Z,97858.84
2022-11-13T15:40:10.318Z,97857.88
2022-11-13T15:42:57.377Z,97857.06
2022-11-13T15:45:44.461Z,97845.59
2022-11-13T15:48:29.877Z,97851.25
2022-11-13T15:51:18.130Z,97852.06
2022-11-13T15:54:23.373Z,97846.81
2022-11-13T15:57:18.071Z,97848.72
2022-11-13T16:00:06.465Z,97844.44
2022-11-13T16:02:54.535Z,97850.44
2022-11-13T16:05:39.768Z,97859.75
2022-11-13T16:08:24.729Z,97860.53
2022-11-13T16:11:16.869Z,97877.69
2022-11-13T16:14:03.584Z,97878.19
2022-11-13T16:16:50.500Z,97872.81
2022-11-13T16:19:36.775Z,97884.84
2022-11-13T16:22:23.189Z,97879.13
2022-11-13T16:25:10.883Z,97879.91
2022-11-13T16:27:55.829Z,97876.91
2022-11-13T16:30:40.755Z,97878.47
2022-11-13T16:33:25.637Z,97875.09
2022-11-13T16:36:21.186Z,97871.22
2022-11-13T16:39:06.311Z,97872.66
2022-11-13T16:41:51.581Z,97868.78
2022-11-13T16:44:37.021Z,97868.56
2022-11-13T16:47:23.260Z,97866.56
2022-11-13T16:50:12.569Z,97857.84
2022-11-13T16:52:57.868Z,97853.38
2022-11-13T16:55:43.070Z,97861.22
2022-11-13T16:58:27.889Z,97850.00
2022-11-13T17:01:16.889Z,97847.78
2022-11-13T17:04:03.226Z,97838.06
2022-11-13T17:06:48.214Z,97842.94
2022-11-13T17:09:33.055Z,97839.88
2022-11-13T17:12:21.875Z,97835.25
2022-11-13T17:15:08.385Z,97840.00
2022-11-13T17:17:55.959Z,97831.84
2022-11-13T17:20:41.030Z,97843.66
2022-11-13T17:23:26.076Z,97833.72
2022-11-13T17:26:11.936Z,97838.31
2022-11-13T17:28:59.268Z,97841.03
2022-11-13T17:31:44.233Z,97845.19
2022-11-13T17:34:29.546Z,97849.09
2022-11-13T17:37:14.620Z,97846.97
2022-11-13T17:40:00.012Z,97841.16
2022-11-13T17:42:47.806Z,97843.75
2022-11-13T17:45:35.428Z,97834.63
2022-11-13T17:48:20.486Z,97830.75
2022-11-13T17:51:06.809Z,97838.09
2022-11-13T17:53:51.729Z,97831.69
2022-11-13T17:56:37.697Z,97825.28
2022-11-13T17:59:22.818Z,97822.06
2022-11-13T18:02:09.803Z,97809.19
2022-11-13T18:04:58.193Z,97812.13
2022-11-13T18:07:43.396Z,97807.16
2022-11-13T18:10:28.748Z,97806.69
2022-11-13T18:13:13.556Z,97801.84
2022-11-13T18:16:03.432Z,97805.59
2022-11-13T18:18:55.027Z,97799.06
2022-11-13T18:21:40.888Z,97802.84
2022-11-13T18:24:26.145Z,97793.50
2022-11-13T18:27:11.424Z,97797.97
2022-11-13T18:29:56.359Z,97800.94
2022-11-13T18:32:41.315Z,97803.53
2022-11-13T18:35:26.264Z,97796.09
2022-11-13T18:38:11.064Z,97789.34
2022-11-13T18:41:06.837Z,97789.44
2022-11-13T18:43:52.114Z,97789.44
2022-11-13T18:46:37.134Z,97782.50
2022-11-13T18:49:22.162Z,97788.00
2022-11-13T18:52:07.151Z,97774.22
2022-11-13T18:54:52.048Z,97778.06
2022-11-13T18:57:37.186Z,97776.53
2022-11-13T19:00:22.030Z,97769.78
2022-11-13T19:03:06.859Z,97762.31
2022-11-13T19:05:51.764Z,97767.50
2022-11-13T19:08:40.736Z,97764.66
2022-11-13T19:11:26.924Z,97769.34
2022-11-13T19:14:16.574Z,97773.22
2022-11-13T19:17:01.584Z,97771.69
2022-11-13T19:19:46.588Z,97765.06
2022-11-13T19:22:31.979Z,97763.41
2022-11-13T19:25:17.184Z,97761.13
2022-11-13T19:28:02.373Z,97760.31
2022-11-13T19:30:48.356Z,97755.31
2022-11-13T19:33:33.945Z,97757.66
2022-11-13T19:36:19.145Z,97761.31
2022-11-13T19:39:04.701Z,97763.06
2022-11-13T19:41:49.904Z,97759.13
2022-11-13T19:44:34.794Z,97757.91
2022-11-13T19:47:19.571Z,97760.72
2022-11-13T19:50:04.584Z,97762.28
2022-11-13T19:52:49.780Z,97758.13
2022-11-13T19:55:34.798Z,97755.88
2022-11-13T19:58:19.909Z,97750.78
2022-11-13T20:01:08.654Z,97748.28
2022-11-13T20:03:54.723Z,97752.97
2022-11-13T20:06:42.211Z,97751.94
2022-11-13T20:09:28.361Z,97745.31
2022-11-13T20:12:16.257Z,97744.56
2022-11-13T20:15:01.181Z,97751.75
2022-11-13T20:17:47.224Z,97747.63
2022-11-13T20:20:34.199Z,97748.66
2022-11-13T20:23:19.471Z,97753.13
2022-11-13T20:26:05.590Z,97755.00
2022-11-13T20:28:50.761Z,97751.91
2022-11-13T20:31:35.631Z,97751.28
2022-11-13T20:34:20.421Z,97759.19
2022-11-13T20:37:05.387Z,97754.69
2022-11-13T20:39:50.211Z,97761.53
2022-11-13T20:42:35.038Z,97753.16
2022-11-13T20:45:20.024Z,97746.28
2022-11-13T20:48:04.953Z,97749.94
2022-11-13T20:50:49.936Z,97741.31
2022-11-13T20:53:35.236Z,97742.06
2022-11-13T20:56:21.697Z,97742.50
2022-11-13T20:59:07.416Z,97744.13
2022-11-13T21:01:52.816Z,97735.53
2022-11-13T21:04:37.854Z,97730.56
2022-11-13T21:07:22.772Z,97735.00
2022-11-13T21:10:07.933Z,97721.53
2022-11-13T21:12:52.867Z,97727.69
2022-11-13T21:15:38.586Z,97731.19
2022-11-13T21:18:23.657Z,97731.28
2022-11-13T21:21:13.921Z,97728.91
2022-11-13T21:23:59.180Z,97718.88
2022-11-13T21:26:44.205Z,97720.63
2022-11-13T21:29:29.141Z,97718.88
2022-11-13T21:32:14.069Z,97712.25
2022-11-13T21:34:59.256Z,97711.22
2022-11-13T21:37:44.594Z,97704.56
2022-11-13T21:40:29.467Z,97711.63
2022-11-13T21:43:14.346Z,97706.53
2022-11-13T21:46:03.469Z,97694.44
2022-11-13T21:48:49.016Z,97694.72
2022-11-13T21:51:35.036Z,97696.28
2022-11-13T21:54:20.216Z,97685.81
2022-11-13T21:57:05.267Z,97685.19
2022-11-13T21:59:50.990Z,97688.75
2022-11-13T22:02:36.993Z,97686.22
2022-11-13T22:05:22.127Z,97672.56
2022-11-13T22:08:06.998Z,97672.56
2022-11-13T22:10:51.969Z,97670.09
2022-11-13T22:13:37.177Z,97676.41
2022-11-13T22:16:22.752Z,97669.53
2022-11-13T22:19:13.396Z,97675.78
2022-11-13T22:21:58.473Z,97671.63
2022-11-13T22:24:43.328Z,97679.63
2022-11-13T22:27:28.903Z,97672.28
2022-11-13T22:30:13.776Z,97670.59
2022-11-13T22:32:58.777Z,97669.88
2022-11-13T22:35:43.645Z,97666.59
2022-11-13T22:38:28.813Z,97666.06
2022-11-13T22:41:23.005Z,97665.22
2022-11-13T22:44:12.881Z,97659.31
2022-11-13T22:46:58.237Z,97659.31
2022-11-13T22:49:43.254Z,97652.38
2022-11-13T22:52:28.207Z,97651.56
2022-11-13T22:55:13.160Z,97649.06
2022-11-13T22:57:58.346Z,97644.63
2022-11-13T23:00:43.424Z,97634.38
2022-11-13T23:03:28.394Z,97633.75
2022-11-13T23:06:14.585Z,97636.44
2022-11-13T23:09:00.706Z,97632.19
2022-11-13T23:11:45.981Z,97626.38
2022-11-13T23:14:30.926Z,97618.00
2022-11-13T23:17:15.950Z,97621.31
2022-11-13T23:20:00.828Z,97614.50
2022-11-13T23:22:45.606Z,97607.75
2022-11-13T23:25:32.352Z,97610.34
2022-11-13T23:28:17.432Z,97610.66
2022-11-13T23:31:02.779Z,97613.34
2022-11-13T23:33:47.974Z,97613.47
2022-11-13T23:36:32.985Z,97618.72
2022-11-13T23:39:17.906Z,97613.66
2022-11-13T23:42:02.846Z,97607.78
2022-11-13T23:44:47.676Z,97610.25
2022-11-13T23:47:32.615Z,97613.53
2022-11-13T23:50:17.637Z,97606.63
2022-11-13T23:53:02.551Z,97601.31
2022-11-13T23:55:47.412Z,97602.38
2022-11-13T23:58:33.093Z,97599.91
